sensor_id;sensor_type;location;lat;lon;timestamp;pressure;altitude;pressure_sealevel;temperature;humidity
59877;BME280;45749;51.140;17.184;2023-04-19T00:00:18;100633.63;;;11.62;83.33
59877;BME280;45749;51.140;17.184;2023-04-19T00:02:44;100632.88;;;11.60;83.60
59877;BME280;45749;51.140;17.184;2023-04-19T00:05:09;100626.13;;;11.56;83.30
59877;BME280;45749;51.140;17.184;2023-04-19T00:07:37;100625.41;;;11.54;83.45
59877;BME280;45749;51.140;17.184;2023-04-19T00:10:03;100629.34;;;11.48;83.30
59877;BME280;45749;51.140;17.184;2023-04-19T00:12:28;100624.38;;;11.44;83.52
59877;BME280;45749;51.140;17.184;2023-04-19T00:14:54;100626.50;;;11.39;83.39
59877;BME280;45749;51.140;17.184;2023-04-19T00:17:19;100615.63;;;11.31;83.41
59877;BME280;45749;51.140;17.184;2023-04-19T00:19:45;100623.34;;;11.34;83.82
59877;BME280;45749;51.140;17.184;2023-04-19T00:22:11;100617.09;;;11.35;83.91
59877;BME280;45749;51.140;17.184;2023-04-19T00:24:36;100622.72;;;11.30;83.57
59877;BME280;45749;51.140;17.184;2023-04-19T00:27:02;100599.94;;;11.16;83.51
59877;BME280;45749;51.140;17.184;2023-04-19T00:29:28;100615.56;;;11.19;83.30
59877;BME280;45749;51.140;17.184;2023-04-19T00:31:53;100614.72;;;11.19;83.39
59877;BME280;45749;51.140;17.184;2023-04-19T00:34:18;100608.47;;;11.20;83.49
59877;BME280;45749;51.140;17.184;2023-04-19T00:36:44;100608.56;;;11.18;83.19
59877;BME280;45749;51.140;17.184;2023-04-19T00:39:09;100603.75;;;11.12;83.10
59877;BME280;45749;51.140;17.184;2023-04-19T00:41:35;100596.25;;;11.06;83.04
59877;BME280;45749;51.140;17.184;2023-04-19T00:44:01;100591.28;;;11.01;83.10
59877;BME280;45749;51.140;17.184;2023-04-19T00:46:26;100591.59;;;10.97;83.05
59877;BME280;45749;51.140;17.184;2023-04-19T00:48:52;100592.38;;;10.86;83.00
59877;BME280;45749;51.140;17.184;2023-04-19T00:51:18;100583.56;;;10.86;83.04
59877;BME280;45749;51.140;17.184;2023-04-19T00:53:44;100577.66;;;10.82;83.03
59877;BME280;45749;51.140;17.184;2023-04-19T00:56:10;100586.66;;;10.79;82.97
59877;BME280;45749;51.140;17.184;2023-04-19T00:58:37;100585.28;;;10.74;82.90
59877;BME280;45749;51.140;17.184;2023-04-19T01:01:03;100579.47;;;10.69;83.26
59877;BME280;45749;51.140;17.184;2023-04-19T01:03:30;100561.09;;;10.67;83.42
59877;BME280;45749;51.140;17.184;2023-04-19T01:05:56;100568.41;;;10.64;83.59
59877;BME280;45749;51.140;17.184;2023-04-19T01:08:22;100565.84;;;10.62;83.28
59877;BME280;45749;51.140;17.184;2023-04-19T01:10:48;100564.59;;;10.55;82.77
59877;BME280;45749;51.140;17.184;2023-04-19T01:13:13;100562.28;;;10.50;82.76
59877;BME280;45749;51.140;17.184;2023-04-19T01:15:38;100561.84;;;10.44;82.33
59877;BME280;45749;51.140;17.184;2023-04-19T01:18:04;100564.16;;;10.36;82.53
59877;BME280;45749;51.140;17.184;2023-04-19T01:20:29;100541.13;;;10.25;82.07
59877;BME280;45749;51.140;17.184;2023-04-19T01:22:55;100556.66;;;10.29;82.30
59877;BME280;45749;51.140;17.184;2023-04-19T01:25:20;100547.44;;;10.22;82.09
59877;BME280;45749;51.140;17.184;2023-04-19T01:27:46;100550.91;;;10.23;81.83
59877;BME280;45749;51.140;17.184;2023-04-19T01:30:11;100553.88;;;10.18;82.05
59877;BME280;45749;51.140;17.184;2023-04-19T01:32:37;100553.31;;;10.13;81.83
59877;BME280;45749;51.140;17.184;2023-04-19T01:35:03;100535.50;;;10.04;82.12
59877;BME280;45749;51.140;17.184;2023-04-19T01:37:28;100540.78;;;10.04;81.90
59877;BME280;45749;51.140;17.184;2023-04-19T01:39:54;100547.19;;;10.00;82.09
59877;BME280;45749;51.140;17.184;2023-04-19T01:42:19;100548.25;;;9.97;81.58
59877;BME280;45749;51.140;17.184;2023-04-19T01:44:44;100537.78;;;9.96;81.11
59877;BME280;45749;51.140;17.184;2023-04-19T01:47:10;100535.13;;;9.83;80.59
59877;BME280;45749;51.140;17.184;2023-04-19T01:49:35;100532.41;;;9.84;80.02
59877;BME280;45749;51.140;17.184;2023-04-19T01:52:01;100538.06;;;9.78;80.00
59877;BME280;45749;51.140;17.184;2023-04-19T01:54:26;100531.53;;;9.71;79.88
59877;BME280;45749;51.140;17.184;2023-04-19T01:56:51;100530.00;;;9.67;79.56
59877;BME280;45749;51.140;17.184;2023-04-19T01:59:17;100521.66;;;9.60;79.48
59877;BME280;45749;51.140;17.184;2023-04-19T02:01:42;100536.81;;;9.57;79.30
59877;BME280;45749;51.140;17.184;2023-04-19T02:04:09;100520.03;;;9.45;79.21
59877;BME280;45749;51.140;17.184;2023-04-19T02:06:34;100533.09;;;9.47;79.41
59877;BME280;45749;51.140;17.184;2023-04-19T02:09:00;100524.47;;;9.45;80.17
59877;BME280;45749;51.140;17.184;2023-04-19T02:11:25;100532.38;;;9.45;79.97
59877;BME280;45749;51.140;17.184;2023-04-19T02:13:51;100534.81;;;9.48;79.78
59877;BME280;45749;51.140;17.184;2023-04-19T02:16:16;100530.59;;;9.45;79.34
59877;BME280;45749;51.140;17.184;2023-04-19T02:18:41;100530.59;;;9.45;79.17
59877;BME280;45749;51.140;17.184;2023-04-19T02:21:09;100529.19;;;9.39;77.97
59877;BME280;45749;51.140;17.184;2023-04-19T02:23:35;100531.25;;;9.34;77.18
59877;BME280;45749;51.140;17.184;2023-04-19T02:26:01;100524.81;;;9.26;76.84
59877;BME280;45749;51.140;17.184;2023-04-19T02:28:31;100521.41;;;9.24;77.67
59877;BME280;45749;51.140;17.184;2023-04-19T02:30:57;100523.50;;;9.19;76.66
59877;BME280;45749;51.140;17.184;2023-04-19T02:33:25;100517.59;;;9.15;76.61
59877;BME280;45749;51.140;17.184;2023-04-19T02:35:51;100519.47;;;9.13;76.16
59877;BME280;45749;51.140;17.184;2023-04-19T02:38:16;100511.88;;;9.08;75.86
59877;BME280;45749;51.140;17.184;2023-04-19T02:40:42;100514.50;;;9.08;76.07
59877;BME280;45749;51.140;17.184;2023-04-19T02:43:07;100510.34;;;9.04;75.64
59877;BME280;45749;51.140;17.184;2023-04-19T02:45:33;100513.09;;;9.03;75.48
59877;BME280;45749;51.140;17.184;2023-04-19T02:47:59;100508.88;;;9.00;75.22
59877;BME280;45749;51.140;17.184;2023-04-19T02:50:25;100507.28;;;8.98;74.65
59877;BME280;45749;51.140;17.184;2023-04-19T02:52:51;100504.81;;;8.95;74.38
59877;BME280;45749;51.140;17.184;2023-04-19T02:55:16;100496.78;;;8.83;74.15
59877;BME280;45749;51.140;17.184;2023-04-19T02:57:42;100508.97;;;8.84;74.50
59877;BME280;45749;51.140;17.184;2023-04-19T03:00:07;100499.59;;;8.80;74.25
59877;BME280;45749;51.140;17.184;2023-04-19T03:02:34;100509.16;;;8.81;74.65
59877;BME280;45749;51.140;17.184;2023-04-19T03:05:00;100507.13;;;8.86;74.33
59877;BME280;45749;51.140;17.184;2023-04-19T03:07:25;100508.25;;;8.82;74.06
59877;BME280;45749;51.140;17.184;2023-04-19T03:09:50;100485.69;;;8.78;73.83
59877;BME280;45749;51.140;17.184;2023-04-19T03:12:16;100481.75;;;8.71;73.63
59877;BME280;45749;51.140;17.184;2023-04-19T03:14:41;100496.03;;;8.67;72.81
59877;BME280;45749;51.140;17.184;2023-04-19T03:17:07;100493.97;;;8.58;72.81
59877;BME280;45749;51.140;17.184;2023-04-19T03:19:32;100492.75;;;8.49;72.33
59877;BME280;45749;51.140;17.184;2023-04-19T03:21:57;100495.84;;;8.41;72.95
59877;BME280;45749;51.140;17.184;2023-04-19T03:24:27;100494.94;;;8.42;73.42
59877;BME280;45749;51.140;17.184;2023-04-19T03:26:56;100489.75;;;8.41;73.59
59877;BME280;45749;51.140;17.184;2023-04-19T03:29:21;100480.41;;;8.35;73.35
59877;BME280;45749;51.140;17.184;2023-04-19T03:31:47;100477.97;;;8.32;73.79
59877;BME280;45749;51.140;17.184;2023-04-19T03:34:13;100472.69;;;8.32;73.73
59877;BME280;45749;51.140;17.184;2023-04-19T03:36:39;100473.56;;;8.33;73.87
59877;BME280;45749;51.140;17.184;2023-04-19T03:39:05;100462.00;;;8.21;73.89
59877;BME280;45749;51.140;17.184;2023-04-19T03:41:31;100474.66;;;8.29;73.46
59877;BME280;45749;51.140;17.184;2023-04-19T03:43:56;100467.25;;;8.21;73.51
59877;BME280;45749;51.140;17.184;2023-04-19T03:46:23;100467.38;;;8.19;73.55
59877;BME280;45749;51.140;17.184;2023-04-19T03:48:48;100478.91;;;8.17;72.94
59877;BME280;45749;51.140;17.184;2023-04-19T03:51:13;100474.09;;;8.09;73.10
59877;BME280;45749;51.140;17.184;2023-04-19T03:53:40;100476.53;;;8.12;73.21
59877;BME280;45749;51.140;17.184;2023-04-19T03:56:05;100479.56;;;8.06;73.60
59877;BME280;45749;51.140;17.184;2023-04-19T03:58:31;100488.34;;;8.05;73.49
59877;BME280;45749;51.140;17.184;2023-04-19T04:00:58;100487.97;;;7.97;73.57
59877;BME280;45749;51.140;17.184;2023-04-19T04:03:24;100481.13;;;7.94;73.13
59877;BME280;45749;51.140;17.184;2023-04-19T04:05:49;100489.28;;;7.90;73.08
59877;BME280;45749;51.140;17.184;2023-04-19T04:08:14;100486.25;;;7.82;73.07
59877;BME280;45749;51.140;17.184;2023-04-19T04:10:40;100487.09;;;7.82;73.21
59877;BME280;45749;51.140;17.184;2023-04-19T04:13:05;100485.41;;;7.81;73.09
59877;BME280;45749;51.140;17.184;2023-04-19T04:15:31;100474.59;;;7.71;72.74
59877;BME280;45749;51.140;17.184;2023-04-19T04:17:56;100485.44;;;7.65;73.17
59877;BME280;45749;51.140;17.184;2023-04-19T04:20:21;100486.03;;;7.70;73.69
59877;BME280;45749;51.140;17.184;2023-04-19T04:22:47;100488.84;;;7.67;74.29
59877;BME280;45749;51.140;17.184;2023-04-19T04:25:16;100491.31;;;7.55;75.68
59877;BME280;45749;51.140;17.184;2023-04-19T04:27:41;100499.03;;;7.42;76.77
59877;BME280;45749;51.140;17.184;2023-04-19T04:30:09;100496.19;;;7.31;77.81
59877;BME280;45749;51.140;17.184;2023-04-19T04:32:36;100471.13;;;7.09;78.46
59877;BME280;45749;51.140;17.184;2023-04-19T04:35:02;100490.19;;;7.13;78.92
59877;BME280;45749;51.140;17.184;2023-04-19T04:37:27;100463.59;;;6.87;79.06
59877;BME280;45749;51.140;17.184;2023-04-19T04:39:55;100481.97;;;7.03;79.87
59877;BME280;45749;51.140;17.184;2023-04-19T04:42:20;100454.72;;;6.90;79.94
59877;BME280;45749;51.140;17.184;2023-04-19T04:44:46;100474.53;;;6.95;80.25
59877;BME280;45749;51.140;17.184;2023-04-19T04:47:12;100487.50;;;7.14;80.70
59877;BME280;45749;51.140;17.184;2023-04-19T04:49:38;100499.75;;;7.14;80.82
59877;BME280;45749;51.140;17.184;2023-04-19T04:52:03;100462.53;;;6.91;80.65
59877;BME280;45749;51.140;17.184;2023-04-19T04:54:29;100489.00;;;7.02;81.08
59877;BME280;45749;51.140;17.184;2023-04-19T04:56:55;100468.78;;;6.89;81.45
59877;BME280;45749;51.140;17.184;2023-04-19T04:59:20;100454.38;;;6.80;80.53
59877;BME280;45749;51.140;17.184;2023-04-19T05:01:46;100486.97;;;6.92;80.89
59877;BME280;45749;51.140;17.184;2023-04-19T05:04:11;100475.38;;;6.80;81.28
59877;BME280;45749;51.140;17.184;2023-04-19T05:06:37;100483.75;;;6.87;81.20
59877;BME280;45749;51.140;17.184;2023-04-19T05:09:05;100481.22;;;6.85;81.35
59877;BME280;45749;51.140;17.184;2023-04-19T05:11:30;100484.84;;;6.82;81.43
59877;BME280;45749;51.140;17.184;2023-04-19T05:13:56;100477.25;;;6.78;81.27
59877;BME280;45749;51.140;17.184;2023-04-19T05:16:21;100456.75;;;6.69;81.37
59877;BME280;45749;51.140;17.184;2023-04-19T05:18:47;100477.03;;;6.81;81.21
59877;BME280;45749;51.140;17.184;2023-04-19T05:21:13;100467.16;;;6.70;81.39
59877;BME280;45749;51.140;17.184;2023-04-19T05:23:38;100469.03;;;6.68;81.26
59877;BME280;45749;51.140;17.184;2023-04-19T05:26:04;100470.09;;;6.64;81.70
59877;BME280;45749;51.140;17.184;2023-04-19T05:28:30;100461.50;;;6.62;81.65
59877;BME280;45749;51.140;17.184;2023-04-19T05:30:55;100471.28;;;6.58;81.62
59877;BME280;45749;51.140;17.184;2023-04-19T05:33:20;100469.59;;;6.57;81.77
59877;BME280;45749;51.140;17.184;2023-04-19T05:35:46;100473.31;;;6.53;81.91
59877;BME280;45749;51.140;17.184;2023-04-19T05:38:11;100470.84;;;6.50;81.99
59877;BME280;45749;51.140;17.184;2023-04-19T05:40:37;100475.09;;;6.53;82.11
59877;BME280;45749;51.140;17.184;2023-04-19T05:43:04;100468.38;;;6.47;82.38
59877;BME280;45749;51.140;17.184;2023-04-19T05:45:29;100462.63;;;6.41;82.03
59877;BME280;45749;51.140;17.184;2023-04-19T05:47:55;100461.19;;;6.35;81.78
59877;BME280;45749;51.140;17.184;2023-04-19T05:50:20;100466.66;;;6.30;81.73
59877;BME280;45749;51.140;17.184;2023-04-19T05:52:46;100463.50;;;6.24;81.48
59877;BME280;45749;51.140;17.184;2023-04-19T05:55:11;100463.34;;;6.27;82.33
59877;BME280;45749;51.140;17.184;2023-04-19T05:57:37;100460.91;;;6.24;81.96
59877;BME280;45749;51.140;17.184;2023-04-19T06:00:03;100468.22;;;6.17;81.87
59877;BME280;45749;51.140;17.184;2023-04-19T06:02:29;100456.97;;;6.15;82.22
59877;BME280;45749;51.140;17.184;2023-04-19T06:04:54;100461.69;;;6.08;81.83
59877;BME280;45749;51.140;17.184;2023-04-19T06:07:22;100460.94;;;6.06;82.11
59877;BME280;45749;51.140;17.184;2023-04-19T06:09:48;100466.38;;;6.02;81.88
59877;BME280;45749;51.140;17.184;2023-04-19T06:12:13;100470.25;;;5.95;82.14
59877;BME280;45749;51.140;17.184;2023-04-19T06:14:38;100471.22;;;5.92;82.26
59877;BME280;45749;51.140;17.184;2023-04-19T06:17:04;100461.44;;;5.78;82.13
59877;BME280;45749;51.140;17.184;2023-04-19T06:19:30;100465.84;;;5.78;82.23
59877;BME280;45749;51.140;17.184;2023-04-19T06:21:58;100466.78;;;5.77;82.00
59877;BME280;45749;51.140;17.184;2023-04-19T06:24:24;100458.28;;;5.72;81.86
59877;BME280;45749;51.140;17.184;2023-04-19T06:26:49;100467.09;;;5.71;82.17
59877;BME280;45749;51.140;17.184;2023-04-19T06:29:15;100476.47;;;5.75;82.36
59877;BME280;45749;51.140;17.184;2023-04-19T06:31:40;100473.69;;;5.78;82.30
59877;BME280;45749;51.140;17.184;2023-04-19T06:34:06;100475.88;;;5.70;82.14
59877;BME280;45749;51.140;17.184;2023-04-19T06:36:32;100473.31;;;5.68;82.38
59877;BME280;45749;51.140;17.184;2023-04-19T06:38:57;100475.94;;;5.68;82.57
59877;BME280;45749;51.140;17.184;2023-04-19T06:41:23;100482.41;;;5.78;82.75
59877;BME280;45749;51.140;17.184;2023-04-19T06:43:48;100476.16;;;5.81;82.37
59877;BME280;45749;51.140;17.184;2023-04-19T06:46:14;100478.63;;;5.84;83.07
59877;BME280;45749;51.140;17.184;2023-04-19T06:48:39;100486.06;;;5.93;83.05
59877;BME280;45749;51.140;17.184;2023-04-19T06:51:06;100477.28;;;5.94;82.66
59877;BME280;45749;51.140;17.184;2023-04-19T06:53:31;100477.22;;;5.96;82.41
59877;BME280;45749;51.140;17.184;2023-04-19T06:55:58;100478.22;;;5.93;82.52
59877;BME280;45749;51.140;17.184;2023-04-19T06:58:27;100478.47;;;5.87;82.84
59877;BME280;45749;51.140;17.184;2023-04-19T07:00:53;100471.56;;;5.86;82.94
59877;BME280;45749;51.140;17.184;2023-04-19T07:03:19;100477.47;;;5.90;83.02
59877;BME280;45749;51.140;17.184;2023-04-19T07:05:45;100483.88;;;6.01;83.64
59877;BME280;45749;51.140;17.184;2023-04-19T07:08:10;100482.19;;;6.00;82.66
59877;BME280;45749;51.140;17.184;2023-04-19T07:10:36;100473.94;;;5.91;83.00
59877;BME280;45749;51.140;17.184;2023-04-19T07:13:01;100474.94;;;5.88;83.07
59877;BME280;45749;51.140;17.184;2023-04-19T07:15:27;100481.88;;;5.89;83.00
59877;BME280;45749;51.140;17.184;2023-04-19T07:17:52;100487.88;;;5.91;83.27
59877;BME280;45749;51.140;17.184;2023-04-19T07:20:17;100474.94;;;5.88;83.39
59877;BME280;45749;51.140;17.184;2023-04-19T07:22:43;100479.06;;;5.92;83.76
59877;BME280;45749;51.140;17.184;2023-04-19T07:25:09;100470.94;;;5.98;83.57
59877;BME280;45749;51.140;17.184;2023-04-19T07:27:34;100471.63;;;6.02;83.76
59877;BME280;45749;51.140;17.184;2023-04-19T07:30:00;100456.44;;;6.08;83.90
59877;BME280;45749;51.140;17.184;2023-04-19T07:32:25;100460.53;;;6.14;83.86
59877;BME280;45749;51.140;17.184;2023-04-19T07:34:51;100455.06;;;6.19;84.20
59877;BME280;45749;51.140;17.184;2023-04-19T07:37:17;100458.44;;;6.21;83.89
59877;BME280;45749;51.140;17.184;2023-04-19T07:39:42;100466.81;;;6.27;83.80
59877;BME280;45749;51.140;17.184;2023-04-19T07:42:08;100456.34;;;6.27;83.73
59877;BME280;45749;51.140;17.184;2023-04-19T07:44:33;100460.72;;;6.27;83.58
59877;BME280;45749;51.140;17.184;2023-04-19T07:46:59;100458.22;;;6.25;83.76
59877;BME280;45749;51.140;17.184;2023-04-19T07:49:24;100457.19;;;6.28;83.96
59877;BME280;45749;51.140;17.184;2023-04-19T07:51:52;100463.72;;;6.37;83.83
59877;BME280;45749;51.140;17.184;2023-04-19T07:54:17;100456.47;;;6.42;83.81
59877;BME280;45749;51.140;17.184;2023-04-19T07:56:45;100463.13;;;6.47;84.30
59877;BME280;45749;51.140;17.184;2023-04-19T07:59:10;100455.88;;;6.52;84.02
59877;BME280;45749;51.140;17.184;2023-04-19T08:01:36;100444.31;;;6.56;84.18
59877;BME280;45749;51.140;17.184;2023-04-19T08:04:01;100452.69;;;6.63;84.07
59877;BME280;45749;51.140;17.184;2023-04-19T08:06:27;100447.19;;;6.68;83.96
59877;BME280;45749;51.140;17.184;2023-04-19T08:08:53;100446.09;;;6.72;84.16
59877;BME280;45749;51.140;17.184;2023-04-19T08:11:19;100448.47;;;6.76;84.27
59877;BME280;45749;51.140;17.184;2023-04-19T08:13:44;100446.19;;;6.86;84.20
59877;BME280;45749;51.140;17.184;2023-04-19T08:16:10;100452.38;;;6.85;83.57
59877;BME280;45749;51.140;17.184;2023-04-19T08:18:35;100456.84;;;6.83;83.82
59877;BME280;45749;51.140;17.184;2023-04-19T08:21:01;100457.09;;;6.78;83.56
59877;BME280;45749;51.140;17.184;2023-04-19T08:23:26;100452.63;;;6.65;83.16
59877;BME280;45749;51.140;17.184;2023-04-19T08:25:51;100462.16;;;6.66;84.02
59877;BME280;45749;51.140;17.184;2023-04-19T08:28:17;100460.28;;;6.68;83.48
59877;BME280;45749;51.140;17.184;2023-04-19T08:30:43;100451.75;;;6.64;83.48
59877;BME280;45749;51.140;17.184;2023-04-19T08:33:08;100448.13;;;6.67;83.99
59877;BME280;45749;51.140;17.184;2023-04-19T08:35:38;100446.34;;;6.67;83.73
59877;BME280;45749;51.140;17.184;2023-04-19T08:38:12;100452.88;;;6.76;83.55
59877;BME280;45749;51.140;17.184;2023-04-19T08:40:46;100445.06;;;6.74;83.78
59877;BME280;45749;51.140;17.184;2023-04-19T08:43:16;100439.66;;;6.77;84.05
59877;BME280;45749;51.140;17.184;2023-04-19T08:45:45;100446.94;;;6.88;83.80
59877;BME280;45749;51.140;17.184;2023-04-19T08:48:13;100426.69;;;6.74;83.66
59877;BME280;45749;51.140;17.184;2023-04-19T08:50:40;100442.44;;;6.90;84.14
59877;BME280;45749;51.140;17.184;2023-04-19T08:53:09;100449.13;;;6.96;83.31
59877;BME280;45749;51.140;17.184;2023-04-19T08:55:37;100440.16;;;7.00;83.73
59877;BME280;45749;51.140;17.184;2023-04-19T08:58:03;100443.72;;;6.99;83.28
59877;BME280;45749;51.140;17.184;2023-04-19T09:00:30;100445.56;;;6.97;83.44
59877;BME280;45749;51.140;17.184;2023-04-19T09:02:56;100435.00;;;6.98;83.71
59877;BME280;45749;51.140;17.184;2023-04-19T09:05:22;100432.78;;;7.07;84.18
59877;BME280;45749;51.140;17.184;2023-04-19T09:07:48;100437.53;;;7.16;83.89
59877;BME280;45749;51.140;17.184;2023-04-19T09:10:18;100429.13;;;7.25;83.68
59877;BME280;45749;51.140;17.184;2023-04-19T09:13:04;100428.97;;;7.28;83.43
59877;BME280;45749;51.140;17.184;2023-04-19T09:15:40;100428.13;;;7.27;83.15
59877;BME280;45749;51.140;17.184;2023-04-19T09:18:08;100428.38;;;7.23;83.31
59877;BME280;45749;51.140;17.184;2023-04-19T09:20:38;100425.00;;;7.21;83.60
59877;BME280;45749;51.140;17.184;2023-04-19T09:23:05;100418.63;;;7.25;84.11
59877;BME280;45749;51.140;17.184;2023-04-19T09:25:31;100432.09;;;7.35;83.87
59877;BME280;45749;51.140;17.184;2023-04-19T09:28:13;100432.75;;;7.38;83.85
59877;BME280;45749;51.140;17.184;2023-04-19T09:30:40;100420.50;;;7.23;82.44
59877;BME280;45749;51.140;17.184;2023-04-19T09:33:06;100417.19;;;7.19;83.26
59877;BME280;45749;51.140;17.184;2023-04-19T09:35:47;100427.25;;;7.27;83.46
59877;BME280;45749;51.140;17.184;2023-04-19T09:38:14;100429.47;;;7.35;83.63
59877;BME280;45749;51.140;17.184;2023-04-19T09:40:41;100429.03;;;7.26;82.56
59877;BME280;45749;51.140;17.184;2023-04-19T09:43:06;100430.16;;;7.22;83.31
59877;BME280;45749;51.140;17.184;2023-04-19T09:45:42;100429.31;;;7.22;83.10
59877;BME280;45749;51.140;17.184;2023-04-19T09:48:09;100430.75;;;7.12;82.93
59877;BME280;45749;51.140;17.184;2023-04-19T09:50:36;100429.16;;;7.09;83.23
59877;BME280;45749;51.140;17.184;2023-04-19T09:53:02;100423.81;;;7.11;83.54
59877;BME280;45749;51.140;17.184;2023-04-19T09:55:28;100422.78;;;7.13;83.42
59877;BME280;45749;51.140;17.184;2023-04-19T09:57:54;100418.38;;;7.14;83.64
59877;BME280;45749;51.140;17.184;2023-04-19T10:00:21;100419.81;;;7.19;83.51
59877;BME280;45749;51.140;17.184;2023-04-19T10:02:50;100426.41;;;7.26;83.46
59877;BME280;45749;51.140;17.184;2023-04-19T10:05:20;100423.72;;;7.28;83.43
59877;BME280;45749;51.140;17.184;2023-04-19T10:07:47;100422.94;;;7.26;83.35
59877;BME280;45749;51.140;17.184;2023-04-19T10:10:14;100424.63;;;7.27;83.16
59877;BME280;45749;51.140;17.184;2023-04-19T10:12:43;100427.44;;;7.24;83.08
59877;BME280;45749;51.140;17.184;2023-04-19T10:15:12;100422.56;;;7.18;83.21
59877;BME280;45749;51.140;17.184;2023-04-19T10:17:38;100414.00;;;7.14;83.39
59877;BME280;45749;51.140;17.184;2023-04-19T10:20:07;100425.75;;;7.23;83.22
59877;BME280;45749;51.140;17.184;2023-04-19T10:22:34;100421.72;;;7.17;83.38
59877;BME280;45749;51.140;17.184;2023-04-19T10:25:15;100419.66;;;7.22;83.66
59877;BME280;45749;51.140;17.184;2023-04-19T10:27:42;100415.34;;;7.21;83.47
59877;BME280;45749;51.140;17.184;2023-04-19T10:30:23;100410.94;;;7.22;84.08
59877;BME280;45749;51.140;17.184;2023-04-19T10:32:55;100407.97;;;7.28;83.99
59877;BME280;45749;51.140;17.184;2023-04-19T10:35:22;100408.63;;;7.32;83.74
59877;BME280;45749;51.140;17.184;2023-04-19T10:38:05;100415.56;;;7.33;83.60
59877;BME280;45749;51.140;17.184;2023-04-19T10:43:24;100407.97;;;7.28;83.75
59877;BME280;45749;51.140;17.184;2023-04-19T10:45:51;100410.31;;;7.33;84.06
59877;BME280;45749;51.140;17.184;2023-04-19T10:59:22;100409.66;;;7.29;83.99
59877;BME280;45749;51.140;17.184;2023-04-19T11:01:51;100406.06;;;7.30;84.07
59877;BME280;45749;51.140;17.184;2023-04-19T11:04:19;100413.03;;;7.31;84.13
59877;BME280;45749;51.140;17.184;2023-04-19T11:09:34;100399.63;;;7.36;83.99
59877;BME280;45749;51.140;17.184;2023-04-19T11:14:30;100385.84;;;7.32;84.25
59877;BME280;45749;51.140;17.184;2023-04-19T11:16:56;100388.47;;;7.32;84.29
59877;BME280;45749;51.140;17.184;2023-04-19T11:19:21;100395.41;;;7.33;84.24
59877;BME280;45749;51.140;17.184;2023-04-19T11:21:48;100406.88;;;7.46;84.56
59877;BME280;45749;51.140;17.184;2023-04-19T11:24:14;100391.22;;;7.45;84.38
59877;BME280;45749;51.140;17.184;2023-04-19T11:26:43;100395.53;;;7.46;84.61
59877;BME280;45749;51.140;17.184;2023-04-19T11:29:09;100389.44;;;7.45;84.31
59877;BME280;45749;51.140;17.184;2023-04-19T11:31:34;100399.78;;;7.48;84.57
59877;BME280;45749;51.140;17.184;2023-04-19T11:34:01;100384.47;;;7.41;84.59
59877;BME280;45749;51.140;17.184;2023-04-19T11:36:27;100391.91;;;7.48;84.80
59877;BME280;45749;51.140;17.184;2023-04-19T11:38:53;100387.84;;;7.43;84.68
59877;BME280;45749;51.140;17.184;2023-04-19T11:41:18;100387.47;;;7.35;84.56
59877;BME280;45749;51.140;17.184;2023-04-19T11:43:45;100394.31;;;7.37;85.05
59877;BME280;45749;51.140;17.184;2023-04-19T11:46:12;100386.63;;;7.34;85.07
59877;BME280;45749;51.140;17.184;2023-04-19T11:48:38;100384.72;;;7.36;85.05
59877;BME280;45749;51.140;17.184;2023-04-19T11:51:14;100389.25;;;7.48;85.46
59877;BME280;45749;51.140;17.184;2023-04-19T11:53:40;100390.94;;;7.49;85.13
59877;BME280;45749;51.140;17.184;2023-04-19T11:56:07;100399.41;;;7.55;85.33
59877;BME280;45749;51.140;17.184;2023-04-19T11:58:41;100405.50;;;7.55;85.23
59877;BME280;45749;51.140;17.184;2023-04-19T12:01:22;100390.09;;;7.49;85.08
59877;BME280;45749;51.140;17.184;2023-04-19T12:03:53;100390.09;;;7.49;85.27
59877;BME280;45749;51.140;17.184;2023-04-19T12:06:24;100389.44;;;7.45;85.28
59877;BME280;45749;51.140;17.184;2023-04-19T12:08:52;100392.00;;;7.47;84.97
59877;BME280;45749;51.140;17.184;2023-04-19T12:11:20;100399.78;;;7.48;85.37
59877;BME280;45749;51.140;17.184;2023-04-19T12:13:46;100390.22;;;7.47;85.34
59877;BME280;45749;51.140;17.184;2023-04-19T12:16:12;100391.59;;;7.39;85.41
59877;BME280;45749;51.140;17.184;2023-04-19T12:18:48;100397.25;;;7.47;85.75
59877;BME280;45749;51.140;17.184;2023-04-19T12:21:34;100399.00;;;7.46;86.03
59877;BME280;45749;51.140;17.184;2023-04-19T12:27:31;100402.13;;;7.53;86.04
59877;BME280;45749;51.140;17.184;2023-04-19T12:30:07;100391.59;;;7.39;85.94
59877;BME280;45749;51.140;17.184;2023-04-19T12:32:33;100396.16;;;7.35;86.11
59877;BME280;45749;51.140;17.184;2023-04-19T12:34:59;100398.38;;;7.27;85.94
59877;BME280;45749;51.140;17.184;2023-04-19T12:37:24;100407.84;;;7.29;85.89
59877;BME280;45749;51.140;17.184;2023-04-19T12:39:50;100395.56;;;7.30;86.25
59877;BME280;45749;51.140;17.184;2023-04-19T12:42:15;100401.00;;;7.27;85.91
59877;BME280;45749;51.140;17.184;2023-04-19T12:44:41;100402.72;;;7.28;85.85
59877;BME280;45749;51.140;17.184;2023-04-19T12:47:06;100387.59;;;7.17;85.83
59877;BME280;45749;51.140;17.184;2023-04-19T12:49:32;100397.38;;;7.14;85.85
59877;BME280;45749;51.140;17.184;2023-04-19T12:52:07;100390.38;;;7.14;85.43
59877;BME280;45749;51.140;17.184;2023-04-19T12:54:56;100393.09;;;7.13;85.62
59877;BME280;45749;51.140;17.184;2023-04-19T12:57:37;100394.59;;;7.17;85.87
59877;BME280;45749;51.140;17.184;2023-04-19T13:00:25;100397.97;;;7.19;86.00
59877;BME280;45749;51.140;17.184;2023-04-19T13:03:12;100405.97;;;7.17;85.87
59877;BME280;45749;51.140;17.184;2023-04-19T13:05:57;100402.41;;;7.18;85.95
59877;BME280;45749;51.140;17.184;2023-04-19T13:08:39;100400.44;;;7.22;85.88